Columbia, North Carolina
Current Conditions -  °F | °C
As of 5:15 PM on Monday 26 Jan 2015 (Local Time) from KEDE Reporting Station
Overcast Overcast  
Wind Chill: 46°   Ceiling: 6000
Heat Index: 49°   Visibility: 10mi
Dew Point: 42°   Wind: 7mph
Humidity: 77%   Direction: 360°N
Pressure: 29.56"   Gusts: NA
Location:  35.92°N, 76.25°W
Report Text: KEDE 262215Z AUTO 36006KT 10SM OVC060 10/06 A2956 RMK AO2 T00960058
Loading
Personal Weather Stations






























Interactive Weather Map New forecast layout! Learn more

10-Day Weather Forecast

Advertisements
Track Severe Weather on mobile